Time;durP1;ratioP1;P1;durP2;ratioP2;P2;SDS_P1;SDS_P2;PMS_P1;PMS_P2;Temp;Humidity;BMP_temperature;BMP_pressure;BME280_temperature;BME280_humidity;BME280_pressure;Samples;Min_cycle;Max_cycle;Signal;HPM_P1;HPM_P2
2022/03/17 00:01:54;;;;;;;31.17;20.97;;;;;;;;;;5015134;28;20239;-84
2022/03/17 00:04:22;;;;;;;26.90;20.87;;;;;;;;;;5014885;28;20664;-84
2022/03/17 00:06:50;;;;;;;29.17;21.73;;;;;;;;;;5014676;28;20242;-83
2022/03/17 00:09:17;;;;;;;28.20;19.87;;;;;;;;;;5015211;28;20211;-84
2022/03/17 00:11:44;;;;;;;29.43;21.63;;;;;;;;;;5014253;28;20238;-83
2022/03/17 00:14:11;;;;;;;29.60;21.83;;;;;;;;;;5015021;28;20586;-84
2022/03/17 00:16:38;;;;;;;27.60;20.33;;;;;;;;;;5014516;28;20652;-83
2022/03/17 00:19:07;;;;;;;29.17;22.47;;;;;;;;;;5015461;28;20211;-84
2022/03/17 00:21:36;;;;;;;27.90;21.60;;;;;;;;;;5014383;28;20231;-83
2022/03/17 00:24:06;;;;;;;30.93;23.00;;;;;;;;;;5014714;28;20683;-83
2022/03/17 00:26:34;;;;;;;27.80;21.23;;;;;;;;;;5015577;28;20239;-86
2022/03/17 00:29:02;;;;;;;25.97;18.67;;;;;;;;;;5015156;28;20219;-84
2022/03/17 00:31:29;;;;;;;27.80;22.03;;;;;;;;;;5014254;28;20732;-83
2022/03/17 00:33:56;;;;;;;29.47;22.43;;;;;;;;;;5015117;28;20254;-84
2022/03/17 00:36:23;;;;;;;28.40;22.07;;;;;;;;;;5014790;28;20235;-84
2022/03/17 00:38:50;;;;;;;29.43;22.50;;;;;;;;;;5014714;28;20211;-84
2022/03/17 00:41:19;;;;;;;28.73;22.17;;;;;;;;;;5014615;28;20330;-84
2022/03/17 00:43:46;;;;;;;31.40;22.10;;;;;;;;;;5015104;28;20672;-84
2022/03/17 00:46:13;;;;;;;33.27;21.20;;;;;;;;;;5014549;28;20246;-84
2022/03/17 00:48:40;;;;;;;28.90;22.17;;;;;;;;;;5014867;28;20215;-83
2022/03/17 00:51:08;;;;;;;27.17;21.27;;;;;;;;;;5015050;28;20239;-85
2022/03/17 00:53:35;;;;;;;28.13;22.00;;;;;;;;;;5014787;28;20836;-84
2022/03/17 00:56:02;;;;;;;29.47;21.70;;;;;;;;;;5013684;28;20703;-84
2022/03/17 00:58:30;;;;;;;26.27;21.53;;;;;;;;;;5014425;28;20215;-84
2022/03/17 01:00:57;;;;;;;29.10;22.13;;;;;;;;;;5014806;28;20231;-84
2022/03/17 01:03:25;;;;;;;31.00;22.97;;;;;;;;;;5025573;28;20210;-83
2022/03/17 01:05:53;;;;;;;29.20;22.27;;;;;;;;;;5017719;28;20235;-84
2022/03/17 01:08:20;;;;;;;31.20;22.03;;;;;;;;;;5014183;28;20230;-84
2022/03/17 01:10:49;;;;;;;29.60;22.83;;;;;;;;;;5013299;28;20231;-84
2022/03/17 01:13:16;;;;;;;28.17;21.90;;;;;;;;;;5014221;28;20213;-84
2022/03/17 01:15:45;;;;;;;28.93;21.70;;;;;;;;;;5013309;28;20243;-84
2022/03/17 01:18:12;;;;;;;28.03;22.40;;;;;;;;;;5013735;28;20215;-84
2022/03/17 01:20:39;;;;;;;30.60;22.53;;;;;;;;;;5013376;28;20243;-84
2022/03/17 01:23:06;;;;;;;32.30;23.17;;;;;;;;;;5013130;28;20207;-84
2022/03/17 01:25:33;;;;;;;28.10;22.23;;;;;;;;;;5013259;28;20323;-84
2022/03/17 01:28:00;;;;;;;29.53;21.93;;;;;;;;;;5015087;28;20864;-84
2022/03/17 01:30:27;;;;;;;30.33;22.30;;;;;;;;;;5013046;28;20231;-84
2022/03/17 01:32:56;;;;;;;32.73;23.00;;;;;;;;;;5013759;28;20211;-84
2022/03/17 01:35:23;;;;;;;30.50;22.77;;;;;;;;;;5013150;28;20246;-83
2022/03/17 01:37:50;;;;;;;33.93;25.00;;;;;;;;;;5013538;28;20211;-84
2022/03/17 01:40:18;;;;;;;29.67;22.40;;;;;;;;;;5013375;28;20207;-83
2022/03/17 01:42:45;;;;;;;30.27;23.10;;;;;;;;;;5013461;28;20553;-83
2022/03/17 01:45:12;;;;;;;31.83;22.80;;;;;;;;;;5013118;28;20219;-83
2022/03/17 01:47:39;;;;;;;31.73;23.83;;;;;;;;;;5013702;28;20880;-82
2022/03/17 01:50:09;;;;;;;32.47;23.07;;;;;;;;;;5012925;28;20203;-83
2022/03/17 01:52:36;;;;;;;32.17;22.93;;;;;;;;;;5024459;28;20285;-83
2022/03/17 01:55:04;;;;;;;32.50;24.10;;;;;;;;;;5032310;28;20234;-83
2022/03/17 01:57:31;;;;;;;32.13;24.10;;;;;;;;;;5032808;28;20260;-83
2022/03/17 01:59:58;;;;;;;31.20;23.73;;;;;;;;;;5032995;28;20202;-83
2022/03/17 02:02:25;;;;;;;31.40;24.33;;;;;;;;;;5032382;28;20245;-84
2022/03/17 02:04:52;;;;;;;34.70;23.83;;;;;;;;;;5033322;28;20248;-83
2022/03/17 02:07:21;;;;;;;32.13;22.80;;;;;;;;;;5031200;28;20238;-83
2022/03/17 02:09:49;;;;;;;31.93;23.57;;;;;;;;;;5023802;28;20204;-83
2022/03/17 02:15:04;;;;;;;30.80;22.20;;;;;;;;;;4993360;28;20247;-83
2022/03/17 02:17:32;;;;;;;33.47;24.00;;;;;;;;;;5013077;28;20230;-83
2022/03/17 02:19:59;;;;;;;30.97;23.17;;;;;;;;;;5013172;28;20211;-83
2022/03/17 02:22:28;;;;;;;34.27;23.17;;;;;;;;;;4993176;28;20264;-83
2022/03/17 02:27:45;;;;;;;33.93;23.73;;;;;;;;;;5012577;28;20234;-83
2022/03/17 02:30:13;;;;;;;33.53;22.77;;;;;;;;;;5012589;28;20215;-83
2022/03/17 02:32:40;;;;;;;29.47;21.77;;;;;;;;;;5013209;28;20214;-83
2022/03/17 02:35:08;;;;;;;30.83;22.93;;;;;;;;;;5012701;28;20233;-83
2022/03/17 02:37:35;;;;;;;31.30;23.10;;;;;;;;;;5019246;28;20207;-83
2022/03/17 02:40:06;;;;;;;30.00;22.40;;;;;;;;;;5013726;28;20214;-83
2022/03/17 02:42:33;;;;;;;32.17;23.10;;;;;;;;;;5013554;28;20686;-82
2022/03/17 02:45:00;;;;;;;30.97;21.87;;;;;;;;;;5012939;28;20238;-83
2022/03/17 02:47:27;;;;;;;32.80;23.03;;;;;;;;;;5012323;28;20235;-83
2022/03/17 02:49:55;;;;;;;32.70;23.87;;;;;;;;;;5013283;28;20210;-83
2022/03/17 02:52:23;;;;;;;32.07;22.80;;;;;;;;;;4993928;28;20786;-83
2022/03/17 02:54:50;;;;;;;32.87;23.97;;;;;;;;;;4993243;28;20267;-83
2022/03/17 02:57:19;;;;;;;29.93;22.90;;;;;;;;;;4992525;28;20240;-83
2022/03/17 02:59:48;;;;;;;33.07;23.50;;;;;;;;;;4993106;28;20212;-83
2022/03/17 03:02:15;;;;;;;29.43;22.63;;;;;;;;;;4992356;28;20243;-82
2022/03/17 03:04:42;;;;;;;29.70;21.93;;;;;;;;;;4992863;28;20228;-83
2022/03/17 03:07:09;;;;;;;32.63;23.20;;;;;;;;;;4992418;28;20235;-82
2022/03/17 03:09:36;;;;;;;32.47;24.07;;;;;;;;;;4993134;28;20215;-83
2022/03/17 03:12:04;;;;;;;32.73;23.43;;;;;;;;;;4992404;28;20235;-82
2022/03/17 03:14:32;;;;;;;30.13;22.70;;;;;;;;;;4993009;28;20231;-83
2022/03/17 03:16:59;;;;;;;33.27;23.53;;;;;;;;;;4992554;28;20247;-84
2022/03/17 03:19:27;;;;;;;32.10;22.87;;;;;;;;;;4992755;28;20212;-83
2022/03/17 03:21:54;;;;;;;32.33;23.23;;;;;;;;;;4992227;28;20259;-83
2022/03/17 03:24:21;;;;;;;30.33;22.37;;;;;;;;;;4992833;28;20215;-83
2022/03/17 03:26:48;;;;;;;33.73;23.47;;;;;;;;;;4992172;28;20735;-83
2022/03/17 03:29:25;;;;;;;34.20;23.90;;;;;;;;;;4992873;28;20204;-84
2022/03/17 03:31:55;;;;;;;31.07;22.67;;;;;;;;;;4992701;28;20283;-82
2022/03/17 03:34:22;;;;;;;31.73;22.97;;;;;;;;;;4993294;28;20208;-83
2022/03/17 03:39:34;;;;;;;30.63;22.87;;;;;;;;;;4993497;28;20183;-83
2022/03/17 03:42:01;;;;;;;33.80;23.60;;;;;;;;;;4992472;28;20235;-83
2022/03/17 03:44:29;;;;;;;32.50;22.90;;;;;;;;;;4994312;28;20595;-82
2022/03/17 03:46:57;;;;;;;33.13;23.50;;;;;;;;;;5011706;28;20240;-83
2022/03/17 03:49:24;;;;;;;31.73;23.20;;;;;;;;;;4997230;28;20215;-83
2022/03/17 03:51:52;;;;;;;30.80;22.80;;;;;;;;;;4996734;28;20246;-83
2022/03/17 03:54:19;;;;;;;30.27;23.43;;;;;;;;;;4997648;28;20207;-83
2022/03/17 03:56:47;;;;;;;32.87;23.47;;;;;;;;;;4996415;28;20244;-83
2022/03/17 03:59:19;;;;;;;29.57;22.70;;;;;;;;;;4997169;28;20743;-83
2022/03/17 04:01:46;;;;;;;32.10;23.13;;;;;;;;;;4996873;28;20246;-83
2022/03/17 04:04:17;;;;;;;33.63;23.33;;;;;;;;;;4996806;28;20215;-83
2022/03/17 04:06:45;;;;;;;33.43;23.87;;;;;;;;;;4995581;28;20330;-83
2022/03/17 04:09:13;;;;;;;33.10;23.87;;;;;;;;;;4996537;28;20218;-84
2022/03/17 04:11:40;;;;;;;32.70;22.93;;;;;;;;;;4996923;28;20306;-83
2022/03/17 04:14:07;;;;;;;30.73;22.43;;;;;;;;;;4999585;28;20216;-83
2022/03/17 04:16:34;;;;;;;32.23;23.07;;;;;;;;;;4998614;28;20349;-83
2022/03/17 04:19:01;;;;;;;33.50;23.47;;;;;;;;;;4997199;28;20220;-83
2022/03/17 04:21:30;;;;;;;31.77;22.83;;;;;;;;;;4995143;28;20746;-84
2022/03/17 04:23:57;;;;;;;31.80;21.77;;;;;;;;;;4995830;28;20295;-84
2022/03/17 04:26:24;;;;;;;30.80;22.70;;;;;;;;;;4995754;28;20244;-84
2022/03/17 04:28:52;;;;;;;30.27;22.57;;;;;;;;;;4996277;28;20193;-85
2022/03/17 04:31:20;;;;;;;33.87;23.50;;;;;;;;;;4996474;28;20254;-85
2022/03/17 04:33:47;;;;;;;31.33;23.33;;;;;;;;;;4996507;28;20208;-85
2022/03/17 04:36:15;;;;;;;30.33;22.80;;;;;;;;;;5022612;23;20239;-82
2022/03/17 04:38:44;;;;;;;33.17;22.63;;;;;;;;;;5015621;28;20273;-82
2022/03/17 04:41:11;;;;;;;30.47;22.73;;;;;;;;;;5015089;28;20239;-81
2022/03/17 04:43:38;;;;;;;30.00;22.40;;;;;;;;;;5015505;28;20207;-82
2022/03/17 04:46:07;;;;;;;35.70;23.23;;;;;;;;;;5016289;28;20231;-82
2022/03/17 04:48:34;;;;;;;31.80;21.90;;;;;;;;;;5016467;28;20208;-82
2022/03/17 04:51:01;;;;;;;31.60;22.40;;;;;;;;;;5016494;28;20258;-82
2022/03/17 04:53:29;;;;;;;29.27;22.40;;;;;;;;;;5016371;28;20679;-82
2022/03/17 04:55:59;;;;;;;31.43;21.50;;;;;;;;;;5016332;28;20297;-82
2022/03/17 04:58:26;;;;;;;29.60;22.30;;;;;;;;;;5014859;28;20207;-83
2022/03/17 05:00:53;;;;;;;33.60;23.10;;;;;;;;;;5016291;28;20235;-81
2022/03/17 05:03:21;;;;;;;30.67;21.70;;;;;;;;;;5017622;28;20228;-82
2022/03/17 05:05:48;;;;;;;33.07;22.30;;;;;;;;;;5016882;28;20236;-82
2022/03/17 05:08:15;;;;;;;30.30;22.10;;;;;;;;;;5017347;28;20211;-81
2022/03/17 05:10:43;;;;;;;30.47;21.90;;;;;;;;;;5018554;28;20246;-82
2022/03/17 05:13:12;;;;;;;30.53;22.23;;;;;;;;;;5019283;28;20218;-81
2022/03/17 05:15:40;;;;;;;32.93;23.83;;;;;;;;;;5019512;28;20249;-82
2022/03/17 05:18:08;;;;;;;30.87;21.37;;;;;;;;;;5017695;28;20203;-82
2022/03/17 05:20:36;;;;;;;29.50;20.90;;;;;;;;;;5007257;28;20286;-81
2022/03/17 05:23:04;;;;;;;33.40;22.87;;;;;;;;;;4997684;28;20208;-81
2022/03/17 05:25:32;;;;;;;35.73;21.57;;;;;;;;;;4996964;28;20254;-81
2022/03/17 05:28:00;;;;;;;33.20;21.33;;;;;;;;;;4998113;28;20244;-82
2022/03/17 05:30:29;;;;;;;35.07;22.20;;;;;;;;;;5001031;28;20266;-82
2022/03/17 05:32:56;;;;;;;33.37;22.27;;;;;;;;;;5017981;28;20230;-81
2022/03/17 05:35:24;;;;;;;34.57;22.97;;;;;;;;;;5018806;28;20245;-82
2022/03/17 05:37:51;;;;;;;37.37;23.33;;;;;;;;;;5023488;28;20207;-82
2022/03/17 05:40:19;;;;;;;31.13;22.03;;;;;;;;;;5014863;28;20254;-81
2022/03/17 05:42:47;;;;;;;35.17;23.00;;;;;;;;;;5016350;28;20210;-82
2022/03/17 05:45:14;;;;;;;34.73;23.13;;;;;;;;;;5016750;28;20227;-82
2022/03/17 05:47:44;;;;;;;32.07;21.80;;;;;;;;;;5017614;28;20217;-82
2022/03/17 05:50:12;;;;;;;32.03;22.90;;;;;;;;;;5019935;28;20223;-82
2022/03/17 05:52:40;;;;;;;34.57;21.90;;;;;;;;;;5018013;28;20424;-82
2022/03/17 05:55:07;;;;;;;31.03;22.30;;;;;;;;;;5018112;28;20231;-83
2022/03/17 05:57:35;;;;;;;36.17;23.47;;;;;;;;;;5016575;28;20293;-82
2022/03/17 06:00:02;;;;;;;32.23;23.07;;;;;;;;;;5017009;28;20215;-83
2022/03/17 06:02:29;;;;;;;34.33;24.00;;;;;;;;;;5013026;28;20600;-83
2022/03/17 06:04:57;;;;;;;32.70;23.53;;;;;;;;;;5013341;28;20238;-84
2022/03/17 06:07:25;;;;;;;33.17;23.20;;;;;;;;;;5013026;28;20239;-84
2022/03/17 06:09:52;;;;;;;31.30;22.13;;;;;;;;;;5014068;28;20196;-84
2022/03/17 06:12:19;;;;;;;35.70;22.90;;;;;;;;;;5014532;28;20242;-83
2022/03/17 06:14:46;;;;;;;32.93;24.73;;;;;;;;;;5016023;28;20277;-83
2022/03/17 06:17:13;;;;;;;35.70;23.17;;;;;;;;;;5015889;28;20235;-82
2022/03/17 06:19:41;;;;;;;30.20;22.93;;;;;;;;;;5016777;28;20728;-82
2022/03/17 06:22:09;;;;;;;35.43;23.17;;;;;;;;;;5016135;28;20242;-82
2022/03/17 06:24:36;;;;;;;36.47;25.77;;;;;;;;;;5016283;28;20211;-82
2022/03/17 06:27:03;;;;;;;35.23;25.00;;;;;;;;;;5015653;28;20262;-83
2022/03/17 06:29:30;;;;;;;36.97;26.27;;;;;;;;;;5016690;28;20203;-83
2022/03/17 06:31:57;;;;;;;32.83;24.47;;;;;;;;;;5016332;28;20710;-82
2022/03/17 06:34:25;;;;;;;36.30;25.60;;;;;;;;;;5016099;28;20257;-82
2022/03/17 06:36:52;;;;;;;37.10;24.47;;;;;;;;;;5015575;28;20689;-82
2022/03/17 06:39:20;;;;;;;31.33;23.03;;;;;;;;;;5017784;28;20207;-82
2022/03/17 06:41:47;;;;;;;38.80;25.63;;;;;;;;;;5017235;28;20239;-82
2022/03/17 06:44:14;;;;;;;34.70;22.93;;;;;;;;;;5017543;28;20210;-82
2022/03/17 06:46:41;;;;;;;36.00;23.63;;;;;;;;;;5016409;28;20557;-81
2022/03/17 06:49:08;;;;;;;33.53;24.00;;;;;;;;;;5017396;28;20237;-81
2022/03/17 06:51:35;;;;;;;35.13;23.67;;;;;;;;;;5016819;28;20241;-82
2022/03/17 06:54:03;;;;;;;35.93;24.40;;;;;;;;;;5016805;28;20211;-80
2022/03/17 06:56:31;;;;;;;36.17;24.50;;;;;;;;;;5013198;28;20703;-82
2022/03/17 06:58:58;;;;;;;35.47;24.30;;;;;;;;;;5017348;28;20234;-81
2022/03/17 07:01:25;;;;;;;33.10;23.87;;;;;;;;;;5017942;28;20235;-82
2022/03/17 07:03:52;;;;;;;34.23;24.67;;;;;;;;;;5018162;28;20234;-81
2022/03/17 07:06:20;;;;;;;34.67;23.67;;;;;;;;;;5017088;28;20235;-81
2022/03/17 07:08:47;;;;;;;31.47;23.87;;;;;;;;;;5011622;28;20212;-82
2022/03/17 07:11:15;;;;;;;38.30;25.90;;;;;;;;;;4999403;28;20291;-82
2022/03/17 07:13:43;;;;;;;36.20;24.33;;;;;;;;;;4999283;28;20222;-82
2022/03/17 07:16:10;;;;;;;37.57;25.53;;;;;;;;;;5000430;28;20327;-81
2022/03/17 07:18:38;;;;;;;35.00;25.23;;;;;;;;;;4998913;28;20204;-81
2022/03/17 07:21:05;;;;;;;37.27;24.67;;;;;;;;;;5004490;28;20251;-81
2022/03/17 07:23:32;;;;;;;35.67;24.60;;;;;;;;;;5005191;28;20207;-82
2022/03/17 07:25:59;;;;;;;34.10;24.40;;;;;;;;;;5003232;28;20243;-81
2022/03/17 07:28:26;;;;;;;34.37;25.60;;;;;;;;;;5003916;28;20212;-81
2022/03/17 07:30:55;;;;;;;38.73;24.20;;;;;;;;;;5009124;28;20242;-82
2022/03/17 07:33:22;;;;;;;32.67;24.40;;;;;;;;;;5022949;28;20214;-82
2022/03/17 07:35:49;;;;;;;32.53;24.20;;;;;;;;;;5015366;28;20298;-82
2022/03/17 07:38:16;;;;;;;30.70;23.40;;;;;;;;;;5003644;28;20215;-82
2022/03/17 07:40:45;;;;;;;36.43;25.03;;;;;;;;;;5002612;28;20479;-82
2022/03/17 07:43:12;;;;;;;34.53;24.97;;;;;;;;;;5007088;28;20196;-80
2022/03/17 07:45:40;;;;;;;34.27;25.37;;;;;;;;;;5008907;28;20255;-81
2022/03/17 07:48:09;;;;;;;35.93;24.43;;;;;;;;;;5023148;28;20227;-82
2022/03/17 07:50:36;;;;;;;32.60;24.07;;;;;;;;;;5017079;28;20603;-80
2022/03/17 07:53:03;;;;;;;32.17;24.53;;;;;;;;;;5007612;28;20204;-81
2022/03/17 07:55:30;;;;;;;38.60;24.83;;;;;;;;;;5017979;28;20230;-80
2022/03/17 07:57:57;;;;;;;36.07;26.43;;;;;;;;;;4999088;28;20223;-81
2022/03/17 08:00:24;;;;;;;35.33;25.33;;;;;;;;;;5000134;28;20254;-81
2022/03/17 08:02:52;;;;;;;34.93;24.80;;;;;;;;;;5017769;28;20216;-81
2022/03/17 08:05:20;;;;;;;38.77;27.37;;;;;;;;;;5007376;28;20239;-81
2022/03/17 08:07:48;;;;;;;41.27;25.77;;;;;;;;;;4997326;28;20204;-81
2022/03/17 08:10:15;;;;;;;39.10;25.67;;;;;;;;;;4998363;28;20217;-81
2022/03/17 08:12:43;;;;;;;38.40;26.10;;;;;;;;;;5014773;28;20222;-80
2022/03/17 08:15:10;;;;;;;38.47;25.20;;;;;;;;;;5017181;28;20715;-81
2022/03/17 08:17:38;;;;;;;33.93;25.80;;;;;;;;;;4998003;28;20236;-81
2022/03/17 08:20:06;;;;;;;35.30;24.07;;;;;;;;;;4997380;28;21135;-81
2022/03/17 08:22:35;;;;;;;37.47;24.37;;;;;;;;;;4999514;28;20365;-81
2022/03/17 08:25:03;;;;;;;34.13;24.60;;;;;;;;;;4999261;28;20224;-81
2022/03/17 08:27:30;;;;;;;34.87;24.37;;;;;;;;;;5007132;28;20226;-81
2022/03/17 08:29:57;;;;;;;34.53;24.43;;;;;;;;;;5019243;28;20234;-82
2022/03/17 08:32:24;;;;;;;32.40;24.60;;;;;;;;;;5016315;28;20234;-81
2022/03/17 08:34:51;;;;;;;38.43;25.77;;;;;;;;;;5010156;28;20231;-82
2022/03/17 08:37:18;;;;;;;35.90;25.07;;;;;;;;;;5018507;28;20307;-82
2022/03/17 08:39:48;;;;;;;35.63;25.83;;;;;;;;;;5018776;28;20204;-81
2022/03/17 08:42:15;;;;;;;33.87;25.93;;;;;;;;;;5015452;28;20243;-82
2022/03/17 08:44:42;;;;;;;40.93;25.60;;;;;;;;;;5016178;28;20235;-81
2022/03/17 08:49:54;;;;;;;29.90;23.57;;;;;;;;;;5015422;28;20273;-81
2022/03/17 08:52:21;;;;;;;32.27;23.93;;;;;;;;;;4998995;28;20228;-81
2022/03/17 08:54:50;;;;;;;32.47;24.30;;;;;;;;;;4996589;28;20220;-82
2022/03/17 08:57:17;;;;;;;33.00;25.07;;;;;;;;;;4996926;28;20243;-82
2022/03/17 08:59:44;;;;;;;34.60;25.77;;;;;;;;;;5003229;28;20218;-82
2022/03/17 09:02:11;;;;;;;33.60;23.17;;;;;;;;;;5015653;28;20326;-83
2022/03/17 09:04:39;;;;;;;34.77;23.83;;;;;;;;;;5015346;28;20223;-82
2022/03/17 09:07:06;;;;;;;32.33;23.80;;;;;;;;;;5015537;28;20231;-83
2022/03/17 09:09:34;;;;;;;35.83;23.90;;;;;;;;;;5017318;28;20211;-82
2022/03/17 09:12:05;;;;;;;32.33;23.60;;;;;;;;;;5018676;28;20254;-82
2022/03/17 09:14:32;;;;;;;33.60;24.50;;;;;;;;;;5019973;28;20211;-83
2022/03/17 09:16:59;;;;;;;33.30;23.23;;;;;;;;;;5012380;28;20224;-83
2022/03/17 09:19:26;;;;;;;31.40;23.53;;;;;;;;;;4996549;28;20208;-83
2022/03/17 09:21:53;;;;;;;31.40;23.07;;;;;;;;;;4997289;28;20246;-83
2022/03/17 09:24:21;;;;;;;33.93;24.33;;;;;;;;;;4996868;28;20200;-83
2022/03/17 09:26:48;;;;;;;33.00;23.87;;;;;;;;;;4997465;28;20238;-83
2022/03/17 09:29:16;;;;;;;33.73;24.13;;;;;;;;;;4996818;28;20219;-83
2022/03/17 09:31:43;;;;;;;32.20;22.93;;;;;;;;;;4996666;28;20239;-83
2022/03/17 09:34:12;;;;;;;31.07;23.57;;;;;;;;;;4998445;28;20211;-81
2022/03/17 09:36:39;;;;;;;34.70;24.47;;;;;;;;;;4997906;28;20247;-82
2022/03/17 09:41:57;;;;;;;29.87;22.53;;;;;;;;;;4983231;28;20255;-82
2022/03/17 09:44:25;;;;;;;34.60;22.93;;;;;;;;;;4998264;28;20219;-82
2022/03/17 09:46:55;;;;;;;33.40;22.17;;;;;;;;;;4997732;28;20232;-81
2022/03/17 09:49:22;;;;;;;28.90;21.63;;;;;;;;;;4999087;28;20254;-82
2022/03/17 09:51:49;;;;;;;29.23;21.47;;;;;;;;;;5010081;28;20238;-82
2022/03/17 09:54:16;;;;;;;31.57;22.17;;;;;;;;;;5019106;28;20195;-82
2022/03/17 09:56:43;;;;;;;29.77;21.67;;;;;;;;;;5016767;28;20666;-81
2022/03/17 09:59:10;;;;;;;28.70;20.43;;;;;;;;;;5018179;28;20208;-82
2022/03/17 10:01:39;;;;;;;31.93;21.63;;;;;;;;;;5018034;28;20242;-82
2022/03/17 10:04:07;;;;;;;29.37;21.60;;;;;;;;;;5016518;28;20180;-82
2022/03/17 10:06:36;;;;;;;27.70;21.57;;;;;;;;;;5016859;28;20239;-81
2022/03/17 10:09:04;;;;;;;29.27;22.20;;;;;;;;;;5018244;28;20207;-81
2022/03/17 10:11:32;;;;;;;34.07;21.37;;;;;;;;;;5018061;28;20239;-81
2022/03/17 10:14:00;;;;;;;30.17;22.30;;;;;;;;;;5018451;28;20294;-82
2022/03/17 10:16:27;;;;;;;28.13;20.70;;;;;;;;;;5018277;28;20246;-81
2022/03/17 10:19:00;;;;;;;28.40;21.93;;;;;;;;;;5018417;28;20234;-81
2022/03/17 10:21:27;;;;;;;27.43;20.83;;;;;;;;;;5016218;28;20227;-81
2022/03/17 10:23:55;;;;;;;27.60;21.00;;;;;;;;;;5009460;28;20469;-81
2022/03/17 10:26:33;;;;;;;25.17;20.37;;;;;;;;;;5017127;28;20250;-81
2022/03/17 10:29:10;;;;;;;29.27;21.20;;;;;;;;;;5017641;28;20203;-81
2022/03/17 10:31:50;;;;;;;28.97;20.73;;;;;;;;;;5017320;28;20299;-81
2022/03/17 10:34:19;;;;;;;27.40;20.63;;;;;;;;;;5008753;28;20211;-81
2022/03/17 10:36:47;;;;;;;28.03;21.27;;;;;;;;;;5032645;23;20250;-84
2022/03/17 10:39:14;;;;;;;29.50;21.10;;;;;;;;;;5012613;28;20310;-84
2022/03/17 10:41:42;;;;;;;28.13;20.60;;;;;;;;;;5011989;28;20255;-83
2022/03/17 10:44:12;;;;;;;29.13;21.00;;;;;;;;;;5012600;28;20254;-84
2022/03/17 10:46:39;;;;;;;25.00;20.00;;;;;;;;;;5011979;28;20239;-84
2022/03/17 10:49:07;;;;;;;29.07;20.37;;;;;;;;;;5012790;28;20244;-84
2022/03/17 10:51:37;;;;;;;26.87;20.13;;;;;;;;;;5011820;28;20239;-84
2022/03/17 10:54:05;;;;;;;28.80;20.63;;;;;;;;;;5012103;28;20565;-84
2022/03/17 10:56:32;;;;;;;27.57;21.03;;;;;;;;;;5015109;28;20235;-84
2022/03/17 10:59:01;;;;;;;28.40;19.93;;;;;;;;;;5016189;28;20266;-83
2022/03/17 11:01:38;;;;;;;28.77;20.03;;;;;;;;;;5015797;28;20234;-83
2022/03/17 11:04:06;;;;;;;27.23;18.97;;;;;;;;;;5016454;28;20195;-84
2022/03/17 11:06:33;;;;;;;26.40;20.43;;;;;;;;;;5015402;28;20239;-84
2022/03/17 11:09:01;;;;;;;25.37;19.37;;;;;;;;;;5016284;28;20204;-83
2022/03/17 11:11:29;;;;;;;25.70;19.70;;;;;;;;;;5015252;28;20330;-84
2022/03/17 11:13:56;;;;;;;25.33;19.50;;;;;;;;;;5015966;28;20273;-83
2022/03/17 11:16:26;;;;;;;27.10;19.90;;;;;;;;;;5015582;28;20243;-84
2022/03/17 11:18:55;;;;;;;25.20;19.30;;;;;;;;;;5015302;28;20250;-84
2022/03/17 11:21:27;;;;;;;27.93;20.10;;;;;;;;;;5014892;28;20231;-84
2022/03/17 11:23:58;;;;;;;24.13;19.60;;;;;;;;;;5015439;28;20214;-84
2022/03/17 11:26:34;;;;;;;26.30;18.90;;;;;;;;;;5014431;28;20242;-84
2022/03/17 11:29:03;;;;;;;23.63;18.50;;;;;;;;;;5015474;28;20278;-84
2022/03/17 11:31:30;;;;;;;24.63;18.77;;;;;;;;;;5014968;28;20263;-82
2022/03/17 11:33:59;;;;;;;25.30;19.90;;;;;;;;;;5015927;28;20230;-84
2022/03/17 11:36:26;;;;;;;23.97;18.43;;;;;;;;;;5014286;28;20671;-84
2022/03/17 11:38:56;;;;;;;21.10;17.30;;;;;;;;;;5015049;28;20223;-84
2022/03/17 11:41:24;;;;;;;26.47;18.97;;;;;;;;;;5014788;28;20297;-84
2022/03/17 11:44:02;;;;;;;23.20;17.77;;;;;;;;;;5015436;28;20445;-84
2022/03/17 11:46:39;;;;;;;24.30;18.70;;;;;;;;;;5002858;28;20243;-84
2022/03/17 11:49:23;;;;;;;23.73;18.73;;;;;;;;;;4995490;28;20695;-86
2022/03/17 11:51:54;;;;;;;22.07;18.10;;;;;;;;;;5009581;28;20246;-86
2022/03/17 11:54:21;;;;;;;23.97;18.00;;;;;;;;;;5015147;28;20574;-82
2022/03/17 11:56:53;;;;;;;26.20;19.03;;;;;;;;;;5014303;28;20319;-83
2022/03/17 11:59:23;;;;;;;24.60;19.37;;;;;;;;;;5010848;28;20315;-84
2022/03/17 12:01:50;;;;;;;29.70;21.30;;;;;;;;;;5010031;28;20259;-88
2022/03/17 12:04:22;;;;;;;26.87;20.73;;;;;;;;;;5015395;28;20785;-86
2022/03/17 12:06:54;;;;;;;26.93;19.77;;;;;;;;;;5013742;28;20257;-86
2022/03/17 12:09:30;;;;;;;23.70;19.17;;;;;;;;;;5015218;28;20191;-86
2022/03/17 12:11:57;;;;;;;26.47;19.23;;;;;;;;;;5015061;28;20259;-86
2022/03/17 12:14:27;;;;;;;29.43;19.77;;;;;;;;;;5016688;28;20579;-85
2022/03/17 12:16:55;;;;;;;25.63;19.00;;;;;;;;;;5013510;28;20243;-85
2022/03/17 12:19:29;;;;;;;28.47;19.93;;;;;;;;;;5014528;28;20617;-84
2022/03/17 12:22:11;;;;;;;26.07;19.80;;;;;;;;;;5013708;28;20249;-86
2022/03/17 12:24:40;;;;;;;25.20;19.77;;;;;;;;;;5013424;28;20671;-86
2022/03/17 12:27:11;;;;;;;24.77;19.00;;;;;;;;;;4995051;28;20718;-86
2022/03/17 12:29:39;;;;;;;24.23;19.83;;;;;;;;;;4995006;28;20629;-86
2022/03/17 12:32:08;;;;;;;25.87;19.93;;;;;;;;;;4994814;28;20247;-86
2022/03/17 12:34:35;;;;;;;26.57;20.20;;;;;;;;;;4994988;28;20703;-86
2022/03/17 12:37:03;;;;;;;26.40;20.83;;;;;;;;;;4999400;28;20246;-86
2022/03/17 12:39:31;;;;;;;26.50;20.90;;;;;;;;;;5014235;28;20238;-85
2022/03/17 12:41:58;;;;;;;28.03;21.70;;;;;;;;;;5014006;28;20276;-87
2022/03/17 12:44:26;;;;;;;31.43;20.93;;;;;;;;;;5014919;28;20214;-85
2022/03/17 12:46:55;;;;;;;31.70;22.83;;;;;;;;;;5013920;28;20265;-85
2022/03/17 12:49:22;;;;;;;27.13;20.67;;;;;;;;;;5014516;28;20206;-86
2022/03/17 12:51:49;;;;;;;23.93;20.07;;;;;;;;;;5014715;28;20601;-85
2022/03/17 12:54:17;;;;;;;29.30;20.67;;;;;;;;;;5014592;28;20219;-86
2022/03/17 12:56:47;;;;;;;26.10;20.47;;;;;;;;;;5013583;28;20619;-86
2022/03/17 12:59:14;;;;;;;26.87;20.57;;;;;;;;;;5013982;28;20231;-86
2022/03/17 13:01:42;;;;;;;29.60;21.83;;;;;;;;;;5011914;28;20289;-86
2022/03/17 13:04:10;;;;;;;29.73;20.83;;;;;;;;;;5014344;28;20207;-86
2022/03/17 13:06:55;;;;;;;30.10;21.60;;;;;;;;;;5005601;28;20250;-86
2022/03/17 13:09:32;;;;;;;27.63;21.50;;;;;;;;;;5000639;28;20187;-86
2022/03/17 13:14:48;;;;;;;27.47;21.63;;;;;;;;;;5028180;28;20259;-86
2022/03/17 13:17:16;;;;;;;32.73;22.97;;;;;;;;;;5014899;28;20725;-85
2022/03/17 13:19:45;;;;;;;34.60;23.10;;;;;;;;;;5013390;28;20281;-85
2022/03/17 13:22:13;;;;;;;30.73;22.43;;;;;;;;;;5013628;28;20322;-85
2022/03/17 13:24:40;;;;;;;29.93;21.30;;;;;;;;;;5014692;28;20494;-84
2022/03/17 13:27:07;;;;;;;29.70;21.63;;;;;;;;;;5013736;28;20243;-84
2022/03/17 13:29:35;;;;;;;29.70;22.17;;;;;;;;;;5013398;28;20278;-85
2022/03/17 13:32:05;;;;;;;24.63;19.63;;;;;;;;;;5013549;28;20266;-84
2022/03/17 13:34:33;;;;;;;24.57;18.80;;;;;;;;;;4996750;28;20236;-85
2022/03/17 13:37:04;;;;;;;23.70;16.30;;;;;;;;;;4993777;28;20723;-86
2022/03/17 13:39:35;;;;;;;20.20;14.57;;;;;;;;;;4994288;28;20208;-84
2022/03/17 13:42:06;;;;;;;16.53;13.03;;;;;;;;;;4993885;28;20240;-84
2022/03/17 13:44:43;;;;;;;16.33;13.10;;;;;;;;;;4994246;28;20192;-84
2022/03/17 13:47:14;;;;;;;14.97;11.67;;;;;;;;;;5004120;28;20256;-87
2022/03/17 13:49:41;;;;;;;15.87;11.37;;;;;;;;;;5001595;28;20227;-85
2022/03/17 13:52:12;;;;;;;14.63;10.27;;;;;;;;;;4993535;28;20248;-85
2022/03/17 13:54:41;;;;;;;16.33;10.67;;;;;;;;;;4994261;28;20656;-85
2022/03/17 13:57:08;;;;;;;14.67;10.50;;;;;;;;;;4993758;28;20240;-84
2022/03/17 13:59:35;;;;;;;13.63;10.50;;;;;;;;;;4993808;28;20228;-84
2022/03/17 14:02:14;;;;;;;14.10;10.63;;;;;;;;;;4993405;28;20246;-85
2022/03/17 14:04:53;;;;;;;14.83;10.60;;;;;;;;;;4994903;28;20216;-84
2022/03/17 14:07:21;;;;;;;15.13;9.87;;;;;;;;;;5004178;28;20257;-84
2022/03/17 14:09:48;;;;;;;14.20;10.00;;;;;;;;;;5012627;28;20211;-84
2022/03/17 14:12:16;;;;;;;12.60;9.33;;;;;;;;;;5013561;28;20231;-84
2022/03/17 14:14:43;;;;;;;13.47;9.80;;;;;;;;;;5013358;28;20204;-84
2022/03/17 14:17:10;;;;;;;11.60;9.57;;;;;;;;;;5012638;28;20231;-84
2022/03/17 14:19:37;;;;;;;12.37;9.93;;;;;;;;;;5012670;28;20235;-84
2022/03/17 14:24:51;;;;;;;13.23;8.83;;;;;;;;;;5012979;28;20291;-84
2022/03/17 14:27:18;;;;;;;15.43;9.70;;;;;;;;;;5012568;28;20246;-84
2022/03/17 14:29:46;;;;;;;10.60;8.50;;;;;;;;;;5012725;28;20199;-84
2022/03/17 14:32:13;;;;;;;10.90;9.13;;;;;;;;;;5013284;28;20234;-84
2022/03/17 14:34:41;;;;;;;11.33;9.10;;;;;;;;;;5014178;28;20294;-84
2022/03/17 14:37:08;;;;;;;11.57;9.10;;;;;;;;;;5012404;28;20607;-84
2022/03/17 14:39:43;;;;;;;12.77;8.40;;;;;;;;;;5012999;28;20637;-84
2022/03/17 14:42:13;;;;;;;11.47;9.40;;;;;;;;;;5013563;28;20234;-84
2022/03/17 14:44:40;;;;;;;13.63;9.40;;;;;;;;;;5013582;28;20234;-85